sensor_id;sensor_type;location;lat;lon;timestamp;P1;durP1;ratioP1;P2;durP2;ratioP2
78183;SDS011;67442;44.570;18.610;2023-09-12T12:23:45;10.75;;;4.93;;
78183;SDS011;67442;44.570;18.610;2023-09-12T12:26:12;10.20;;;4.03;;
78183;SDS011;67442;44.570;18.610;2023-09-12T12:28:40;15.18;;;5.40;;
78183;SDS011;67442;44.570;18.610;2023-09-12T12:31:07;12.35;;;5.28;;
78183;SDS011;67442;44.570;18.610;2023-09-12T12:33:39;11.23;;;5.07;;
78183;SDS011;67442;44.570;18.610;2023-09-12T12:36:06;13.30;;;5.68;;
78183;SDS011;67442;44.570;18.610;2023-09-12T12:38:34;12.48;;;4.93;;
78183;SDS011;67442;44.570;18.610;2023-09-12T12:41:01;9.20;;;4.13;;
78183;SDS011;67442;44.570;18.610;2023-09-12T12:43:33;9.07;;;4.82;;
78183;SDS011;67442;44.570;18.610;2023-09-12T12:46:00;12.73;;;5.78;;
78183;SDS011;67442;44.570;18.610;2023-09-12T12:48:34;14.95;;;4.93;;
78183;SDS011;67442;44.570;18.610;2023-09-12T12:51:18;8.43;;;4.60;;
78183;SDS011;67442;44.570;18.610;2023-09-12T12:53:49;10.52;;;4.88;;
78183;SDS011;67442;44.570;18.610;2023-09-12T12:56:26;9.52;;;5.10;;
78183;SDS011;67442;44.570;18.610;2023-09-12T12:58:58;12.10;;;5.20;;
78183;SDS011;67442;44.570;18.610;2023-09-12T13:21:42;10.13;;;4.97;;
78183;SDS011;67442;44.570;18.610;2023-09-12T13:24:10;7.75;;;4.22;;
78183;SDS011;67442;44.570;18.610;2023-09-12T13:26:42;9.05;;;4.95;;
78183;SDS011;67442;44.570;18.610;2023-09-12T13:29:09;9.43;;;4.35;;
78183;SDS011;67442;44.570;18.610;2023-09-12T13:31:36;9.88;;;4.75;;
78183;SDS011;67442;44.570;18.610;2023-09-12T13:34:07;10.98;;;5.03;;
78183;SDS011;67442;44.570;18.610;2023-09-12T13:36:35;8.60;;;4.53;;
78183;SDS011;67442;44.570;18.610;2023-09-12T13:39:06;13.05;;;4.28;;
78183;SDS011;67442;44.570;18.610;2023-09-12T13:41:37;10.68;;;4.35;;
78183;SDS011;67442;44.570;18.610;2023-09-12T13:44:08;7.32;;;4.72;;
78183;SDS011;67442;44.570;18.610;2023-09-12T13:46:36;7.15;;;4.40;;
78183;SDS011;67442;44.570;18.610;2023-09-12T13:49:04;7.75;;;4.07;;
78183;SDS011;67442;44.570;18.610;2023-09-12T13:51:31;10.98;;;5.28;;
78183;SDS011;67442;44.570;18.610;2023-09-12T13:53:59;7.47;;;4.80;;
78183;SDS011;67442;44.570;18.610;2023-09-12T13:56:26;7.97;;;4.55;;
78183;SDS011;67442;44.570;18.610;2023-09-12T13:58:58;7.22;;;4.47;;
78183;SDS011;67442;44.570;18.610;2023-09-12T14:01:25;6.53;;;4.00;;
78183;SDS011;67442;44.570;18.610;2023-09-12T14:03:53;10.30;;;4.55;;
78183;SDS011;67442;44.570;18.610;2023-09-12T14:06:24;7.13;;;4.30;;
78183;SDS011;67442;44.570;18.610;2023-09-12T14:08:55;8.35;;;4.45;;
78183;SDS011;67442;44.570;18.610;2023-09-12T14:11:22;7.28;;;4.55;;
78183;SDS011;67442;44.570;18.610;2023-09-12T14:13:50;9.48;;;4.95;;
78183;SDS011;67442;44.570;18.610;2023-09-12T14:16:21;9.05;;;4.43;;
78183;SDS011;67442;44.570;18.610;2023-09-12T14:18:52;9.63;;;4.35;;
78183;SDS011;67442;44.570;18.610;2023-09-12T14:21:23;8.65;;;4.63;;
78183;SDS011;67442;44.570;18.610;2023-09-12T14:23:51;6.03;;;4.25;;
78183;SDS011;67442;44.570;18.610;2023-09-12T14:26:18;8.88;;;4.20;;
78183;SDS011;67442;44.570;18.610;2023-09-12T14:28:49;9.68;;;4.82;;
78183;SDS011;67442;44.570;18.610;2023-09-12T14:31:17;10.07;;;4.88;;
78183;SDS011;67442;44.570;18.610;2023-09-12T14:33:45;8.35;;;4.60;;
78183;SDS011;67442;44.570;18.610;2023-09-12T14:36:12;5.85;;;3.95;;
78183;SDS011;67442;44.570;18.610;2023-09-12T14:38:40;6.78;;;4.30;;
78183;SDS011;67442;44.570;18.610;2023-09-12T14:41:11;9.23;;;4.50;;
78183;SDS011;67442;44.570;18.610;2023-09-12T14:43:38;8.20;;;4.50;;
78183;SDS011;67442;44.570;18.610;2023-09-12T14:46:06;6.82;;;4.32;;
78183;SDS011;67442;44.570;18.610;2023-09-12T14:48:34;7.70;;;4.65;;
78183;SDS011;67442;44.570;18.610;2023-09-12T14:51:06;6.68;;;3.80;;
78183;SDS011;67442;44.570;18.610;2023-09-12T14:53:33;7.38;;;3.92;;
78183;SDS011;67442;44.570;18.610;2023-09-12T14:56:00;7.35;;;4.22;;
78183;SDS011;67442;44.570;18.610;2023-09-12T14:58:28;6.25;;;4.03;;
78183;SDS011;67442;44.570;18.610;2023-09-12T15:00:55;6.63;;;4.20;;
78183;SDS011;67442;44.570;18.610;2023-09-12T15:03:23;7.18;;;4.53;;
78183;SDS011;67442;44.570;18.610;2023-09-12T15:05:54;6.70;;;4.20;;
78183;SDS011;67442;44.570;18.610;2023-09-12T15:08:22;7.35;;;4.32;;
78183;SDS011;67442;44.570;18.610;2023-09-12T15:10:49;7.97;;;4.20;;
78183;SDS011;67442;44.570;18.610;2023-09-12T15:13:17;6.60;;;3.90;;
78183;SDS011;67442;44.570;18.610;2023-09-12T15:15:44;8.90;;;4.47;;
78183;SDS011;67442;44.570;18.610;2023-09-12T15:18:12;8.32;;;4.10;;
78183;SDS011;67442;44.570;18.610;2023-09-12T15:20:40;9.10;;;4.70;;
78183;SDS011;67442;44.570;18.610;2023-09-12T15:23:11;9.68;;;5.32;;
78183;SDS011;67442;44.570;18.610;2023-09-12T15:25:39;10.25;;;5.85;;
78183;SDS011;67442;44.570;18.610;2023-09-12T15:28:10;9.43;;;5.68;;
78183;SDS011;67442;44.570;18.610;2023-09-12T15:30:37;13.20;;;5.68;;
78183;SDS011;67442;44.570;18.610;2023-09-12T15:33:05;13.13;;;6.20;;
78183;SDS011;67442;44.570;18.610;2023-09-12T15:35:32;10.68;;;6.70;;
78183;SDS011;67442;44.570;18.610;2023-09-12T15:38:04;11.38;;;6.10;;
78183;SDS011;67442;44.570;18.610;2023-09-12T15:40:32;10.95;;;6.60;;
78183;SDS011;67442;44.570;18.610;2023-09-12T15:43:02;9.10;;;5.90;;
78183;SDS011;67442;44.570;18.610;2023-09-12T15:45:30;10.02;;;6.20;;
78183;SDS011;67442;44.570;18.610;2023-09-12T15:47:57;14.82;;;6.80;;
78183;SDS011;67442;44.570;18.610;2023-09-12T15:50:25;10.55;;;6.25;;
78183;SDS011;67442;44.570;18.610;2023-09-12T15:52:52;10.43;;;5.95;;
78183;SDS011;67442;44.570;18.610;2023-09-12T15:55:20;15.05;;;6.60;;
78183;SDS011;67442;44.570;18.610;2023-09-12T15:57:48;11.80;;;6.80;;
78183;SDS011;67442;44.570;18.610;2023-09-12T16:00:15;9.55;;;6.20;;
78183;SDS011;67442;44.570;18.610;2023-09-12T16:02:42;15.60;;;6.80;;
78183;SDS011;67442;44.570;18.610;2023-09-12T16:05:09;10.75;;;7.10;;
78183;SDS011;67442;44.570;18.610;2023-09-12T16:07:37;10.48;;;7.05;;
78183;SDS011;67442;44.570;18.610;2023-09-12T16:10:04;16.95;;;7.45;;
78183;SDS011;67442;44.570;18.610;2023-09-12T16:12:36;11.35;;;6.78;;
78183;SDS011;67442;44.570;18.610;2023-09-12T16:15:04;11.50;;;7.30;;
78183;SDS011;67442;44.570;18.610;2023-09-12T16:17:34;10.13;;;7.18;;
78183;SDS011;67442;44.570;18.610;2023-09-12T16:20:10;11.73;;;6.95;;
78183;SDS011;67442;44.570;18.610;2023-09-12T16:22:42;13.07;;;7.10;;
78183;SDS011;67442;44.570;18.610;2023-09-12T16:25:09;11.40;;;7.43;;
78183;SDS011;67442;44.570;18.610;2023-09-12T16:27:37;16.65;;;7.47;;
78183;SDS011;67442;44.570;18.610;2023-09-12T16:30:04;11.15;;;6.80;;
78183;SDS011;67442;44.570;18.610;2023-09-12T16:32:34;9.77;;;6.95;;
78183;SDS011;67442;44.570;18.610;2023-09-12T16:35:02;11.15;;;6.63;;
78183;SDS011;67442;44.570;18.610;2023-09-12T16:37:30;9.52;;;6.75;;
78183;SDS011;67442;44.570;18.610;2023-09-12T16:39:58;13.20;;;6.95;;
78183;SDS011;67442;44.570;18.610;2023-09-12T16:42:26;10.73;;;6.80;;
78183;SDS011;67442;44.570;18.610;2023-09-12T16:44:57;9.50;;;6.00;;
78183;SDS011;67442;44.570;18.610;2023-09-12T16:47:28;12.30;;;6.55;;
78183;SDS011;67442;44.570;18.610;2023-09-12T16:49:56;10.02;;;6.30;;
78183;SDS011;67442;44.570;18.610;2023-09-12T16:52:27;8.43;;;6.00;;
78183;SDS011;67442;44.570;18.610;2023-09-12T16:54:56;8.63;;;6.10;;
78183;SDS011;67442;44.570;18.610;2023-09-12T16:57:27;7.97;;;5.70;;
78183;SDS011;67442;44.570;18.610;2023-09-12T16:59:54;8.90;;;5.43;;
78183;SDS011;67442;44.570;18.610;2023-09-12T17:02:22;8.88;;;5.57;;
78183;SDS011;67442;44.570;18.610;2023-09-12T17:04:54;11.85;;;6.07;;
78183;SDS011;67442;44.570;18.610;2023-09-12T17:07:21;13.18;;;5.82;;
78183;SDS011;67442;44.570;18.610;2023-09-12T17:09:53;8.77;;;5.78;;
78183;SDS011;67442;44.570;18.610;2023-09-12T17:12:20;8.95;;;5.65;;
78183;SDS011;67442;44.570;18.610;2023-09-12T17:14:48;12.95;;;5.78;;
78183;SDS011;67442;44.570;18.610;2023-09-12T17:17:15;11.85;;;6.32;;
78183;SDS011;67442;44.570;18.610;2023-09-12T17:19:42;9.73;;;6.25;;
78183;SDS011;67442;44.570;18.610;2023-09-12T17:22:13;11.95;;;6.60;;
78183;SDS011;67442;44.570;18.610;2023-09-12T17:24:40;11.48;;;6.25;;
78183;SDS011;67442;44.570;18.610;2023-09-12T17:27:12;8.35;;;5.57;;
78183;SDS011;67442;44.570;18.610;2023-09-12T17:29:40;10.60;;;5.85;;
78183;SDS011;67442;44.570;18.610;2023-09-12T17:32:11;10.73;;;6.28;;
78183;SDS011;67442;44.570;18.610;2023-09-12T17:34:41;11.32;;;6.90;;
78183;SDS011;67442;44.570;18.610;2023-09-12T17:37:29;10.73;;;6.55;;
78183;SDS011;67442;44.570;18.610;2023-09-12T17:39:57;11.35;;;5.85;;
78183;SDS011;67442;44.570;18.610;2023-09-12T17:42:25;9.55;;;5.40;;
78183;SDS011;67442;44.570;18.610;2023-09-12T17:44:56;8.73;;;5.38;;
78183;SDS011;67442;44.570;18.610;2023-09-12T17:47:23;7.70;;;4.85;;
78183;SDS011;67442;44.570;18.610;2023-09-12T17:49:55;9.98;;;5.22;;
78183;SDS011;67442;44.570;18.610;2023-09-12T17:52:22;7.35;;;4.97;;
78183;SDS011;67442;44.570;18.610;2023-09-12T17:54:49;7.50;;;4.88;;
78183;SDS011;67442;44.570;18.610;2023-09-12T17:57:17;7.72;;;4.85;;
78183;SDS011;67442;44.570;18.610;2023-09-12T17:59:44;8.63;;;4.95;;
78183;SDS011;67442;44.570;18.610;2023-09-12T18:02:16;7.68;;;4.85;;
78183;SDS011;67442;44.570;18.610;2023-09-12T18:04:44;8.63;;;4.97;;
78183;SDS011;67442;44.570;18.610;2023-09-12T18:07:15;7.90;;;5.03;;
78183;SDS011;67442;44.570;18.610;2023-09-12T18:09:46;9.82;;;5.35;;
78183;SDS011;67442;44.570;18.610;2023-09-12T18:12:16;6.93;;;4.85;;
78183;SDS011;67442;44.570;18.610;2023-09-12T18:14:47;6.15;;;5.07;;
78183;SDS011;67442;44.570;18.610;2023-09-12T18:17:14;6.65;;;5.00;;
78183;SDS011;67442;44.570;18.610;2023-09-12T18:19:46;5.25;;;4.30;;
78183;SDS011;67442;44.570;18.610;2023-09-12T18:22:14;7.10;;;4.57;;
78183;SDS011;67442;44.570;18.610;2023-09-12T18:24:42;7.88;;;5.03;;
78183;SDS011;67442;44.570;18.610;2023-09-12T18:27:09;5.60;;;4.35;;
78183;SDS011;67442;44.570;18.610;2023-09-12T18:29:37;8.88;;;4.60;;
78183;SDS011;67442;44.570;18.610;2023-09-12T18:32:07;6.82;;;4.60;;
78183;SDS011;67442;44.570;18.610;2023-09-12T18:34:35;6.45;;;4.40;;
78183;SDS011;67442;44.570;18.610;2023-09-12T18:37:03;8.18;;;4.45;;
78183;SDS011;67442;44.570;18.610;2023-09-12T18:39:32;8.10;;;4.80;;
78183;SDS011;67442;44.570;18.610;2023-09-12T18:41:59;6.10;;;4.22;;
78183;SDS011;67442;44.570;18.610;2023-09-12T18:44:27;7.55;;;5.18;;
78183;SDS011;67442;44.570;18.610;2023-09-12T18:46:55;6.15;;;4.25;;
78183;SDS011;67442;44.570;18.610;2023-09-12T18:49:26;10.23;;;4.85;;
78183;SDS011;67442;44.570;18.610;2023-09-12T18:51:57;5.70;;;4.35;;
78183;SDS011;67442;44.570;18.610;2023-09-12T18:54:25;8.85;;;5.13;;
78183;SDS011;67442;44.570;18.610;2023-09-12T18:56:57;6.82;;;4.80;;
78183;SDS011;67442;44.570;18.610;2023-09-12T18:59:24;8.98;;;4.05;;
78183;SDS011;67442;44.570;18.610;2023-09-12T19:01:51;7.28;;;4.93;;
78183;SDS011;67442;44.570;18.610;2023-09-12T19:04:22;7.43;;;4.50;;
78183;SDS011;67442;44.570;18.610;2023-09-12T19:06:54;7.95;;;5.07;;
78183;SDS011;67442;44.570;18.610;2023-09-12T19:09:23;5.93;;;4.38;;
78183;SDS011;67442;44.570;18.610;2023-09-12T19:11:50;8.20;;;4.28;;
78183;SDS011;67442;44.570;18.610;2023-09-12T19:14:18;6.60;;;4.50;;
78183;SDS011;67442;44.570;18.610;2023-09-12T19:16:51;6.75;;;4.45;;
78183;SDS011;67442;44.570;18.610;2023-09-12T19:19:20;7.20;;;4.93;;
78183;SDS011;67442;44.570;18.610;2023-09-12T19:21:47;6.88;;;4.25;;
78183;SDS011;67442;44.570;18.610;2023-09-12T19:24:16;6.88;;;4.47;;
78183;SDS011;67442;44.570;18.610;2023-09-12T19:26:47;6.47;;;5.10;;
78183;SDS011;67442;44.570;18.610;2023-09-12T19:29:15;6.70;;;5.22;;
78183;SDS011;67442;44.570;18.610;2023-09-12T19:31:42;8.38;;;4.80;;
78183;SDS011;67442;44.570;18.610;2023-09-12T19:34:10;8.75;;;4.93;;
78183;SDS011;67442;44.570;18.610;2023-09-12T19:36:38;10.90;;;4.82;;
78183;SDS011;67442;44.570;18.610;2023-09-12T19:39:07;8.85;;;4.47;;
78183;SDS011;67442;44.570;18.610;2023-09-12T19:41:33;5.38;;;4.20;;
78183;SDS011;67442;44.570;18.610;2023-09-12T19:44:05;10.77;;;4.32;;
78183;SDS011;67442;44.570;18.610;2023-09-12T19:46:33;6.05;;;4.40;;
78183;SDS011;67442;44.570;18.610;2023-09-12T19:49:06;5.57;;;4.47;;
78183;SDS011;67442;44.570;18.610;2023-09-12T19:51:33;8.88;;;4.60;;
78183;SDS011;67442;44.570;18.610;2023-09-12T19:54:01;10.13;;;4.90;;
78183;SDS011;67442;44.570;18.610;2023-09-12T19:56:29;10.07;;;5.20;;
78183;SDS011;67442;44.570;18.610;2023-09-12T19:59:01;10.68;;;5.80;;
78183;SDS011;67442;44.570;18.610;2023-09-12T20:01:28;13.50;;;5.65;;
78183;SDS011;67442;44.570;18.610;2023-09-12T20:03:54;12.98;;;5.57;;
78183;SDS011;67442;44.570;18.610;2023-09-12T20:06:21;15.60;;;5.60;;
78183;SDS011;67442;44.570;18.610;2023-09-12T20:08:47;13.30;;;5.70;;
78183;SDS011;67442;44.570;18.610;2023-09-12T20:11:15;13.80;;;5.75;;
78183;SDS011;67442;44.570;18.610;2023-09-12T20:13:42;7.93;;;5.38;;
78183;SDS011;67442;44.570;18.610;2023-09-12T20:16:15;11.63;;;5.63;;
78183;SDS011;67442;44.570;18.610;2023-09-12T20:18:59;12.90;;;6.60;;
78183;SDS011;67442;44.570;18.610;2023-09-12T20:21:31;16.60;;;6.90;;
78183;SDS011;67442;44.570;18.610;2023-09-12T20:24:04;18.52;;;7.47;;
78183;SDS011;67442;44.570;18.610;2023-09-12T20:26:36;18.02;;;7.45;;
78183;SDS011;67442;44.570;18.610;2023-09-12T20:29:03;17.50;;;7.68;;
78183;SDS011;67442;44.570;18.610;2023-09-12T20:31:36;20.75;;;7.93;;
78183;SDS011;67442;44.570;18.610;2023-09-12T20:34:03;20.50;;;8.02;;
78183;SDS011;67442;44.570;18.610;2023-09-12T20:36:37;22.52;;;8.82;;
78183;SDS011;67442;44.570;18.610;2023-09-12T20:41:53;21.05;;;7.28;;
78183;SDS011;67442;44.570;18.610;2023-09-12T20:44:20;17.85;;;7.40;;
78183;SDS011;67442;44.570;18.610;2023-09-12T20:46:46;21.48;;;7.70;;
78183;SDS011;67442;44.570;18.610;2023-09-12T20:49:14;17.88;;;7.72;;
78183;SDS011;67442;44.570;18.610;2023-09-12T20:51:47;18.30;;;7.50;;
78183;SDS011;67442;44.570;18.610;2023-09-12T20:54:18;20.65;;;8.15;;
78183;SDS011;67442;44.570;18.610;2023-09-12T20:56:47;22.52;;;7.47;;
78183;SDS011;67442;44.570;18.610;2023-09-12T20:59:14;15.02;;;7.15;;
78183;SDS011;67442;44.570;18.610;2023-09-12T21:01:42;16.60;;;7.60;;
78183;SDS011;67442;44.570;18.610;2023-09-12T21:04:09;16.50;;;7.75;;
78183;SDS011;67442;44.570;18.610;2023-09-12T21:06:36;15.75;;;7.10;;
78183;SDS011;67442;44.570;18.610;2023-09-12T21:09:04;19.67;;;6.93;;
78183;SDS011;67442;44.570;18.610;2023-09-12T21:11:31;16.67;;;7.57;;
78183;SDS011;67442;44.570;18.610;2023-09-12T21:13:58;15.25;;;6.75;;
78183;SDS011;67442;44.570;18.610;2023-09-12T21:16:26;15.82;;;6.82;;
78183;SDS011;67442;44.570;18.610;2023-09-12T21:18:53;16.10;;;6.97;;
78183;SDS011;67442;44.570;18.610;2023-09-12T21:21:20;20.30;;;7.90;;
78183;SDS011;67442;44.570;18.610;2023-09-12T21:23:49;14.02;;;6.93;;
78183;SDS011;67442;44.570;18.610;2023-09-12T21:26:16;18.25;;;7.70;;
78183;SDS011;67442;44.570;18.610;2023-09-12T21:28:44;11.20;;;5.75;;
78183;SDS011;67442;44.570;18.610;2023-09-12T21:31:12;16.67;;;7.10;;
78183;SDS011;67442;44.570;18.610;2023-09-12T21:33:43;15.63;;;6.38;;
78183;SDS011;67442;44.570;18.610;2023-09-12T21:36:15;16.27;;;7.03;;
78183;SDS011;67442;44.570;18.610;2023-09-12T21:38:42;13.85;;;7.03;;
78183;SDS011;67442;44.570;18.610;2023-09-12T21:41:13;18.05;;;7.28;;
78183;SDS011;67442;44.570;18.610;2023-09-12T21:43:40;16.88;;;6.63;;
78183;SDS011;67442;44.570;18.610;2023-09-12T21:46:08;15.43;;;6.78;;
78183;SDS011;67442;44.570;18.610;2023-09-12T21:48:35;11.70;;;7.00;;
78183;SDS011;67442;44.570;18.610;2023-09-12T21:51:05;13.25;;;6.57;;
78183;SDS011;67442;44.570;18.610;2023-09-12T21:53:36;13.98;;;6.03;;
78183;SDS011;67442;44.570;18.610;2023-09-12T21:56:07;15.48;;;6.65;;
78183;SDS011;67442;44.570;18.610;2023-09-12T21:58:35;11.52;;;6.68;;
78183;SDS011;67442;44.570;18.610;2023-09-12T22:01:02;12.57;;;6.60;;
78183;SDS011;67442;44.570;18.610;2023-09-12T22:03:31;13.38;;;7.00;;
78183;SDS011;67442;44.570;18.610;2023-09-12T22:06:04;15.63;;;6.70;;
78183;SDS011;67442;44.570;18.610;2023-09-12T22:08:34;13.73;;;6.35;;
78183;SDS011;67442;44.570;18.610;2023-09-12T22:11:03;13.48;;;6.40;;
78183;SDS011;67442;44.570;18.610;2023-09-12T22:13:31;12.45;;;6.40;;
78183;SDS011;67442;44.570;18.610;2023-09-12T22:15:59;10.38;;;5.75;;
78183;SDS011;67442;44.570;18.610;2023-09-12T22:18:26;11.82;;;6.18;;
78183;SDS011;67442;44.570;18.610;2023-09-12T22:20:54;14.25;;;5.97;;
78183;SDS011;67442;44.570;18.610;2023-09-12T22:23:21;12.93;;;6.80;;
78183;SDS011;67442;44.570;18.610;2023-09-12T22:25:48;15.05;;;6.47;;
78183;SDS011;67442;44.570;18.610;2023-09-12T22:28:24;12.20;;;6.25;;
78183;SDS011;67442;44.570;18.610;2023-09-12T22:30:52;13.85;;;6.25;;
78183;SDS011;67442;44.570;18.610;2023-09-12T22:33:19;11.63;;;6.10;;
78183;SDS011;67442;44.570;18.610;2023-09-12T22:35:52;17.33;;;7.00;;
78183;SDS011;67442;44.570;18.610;2023-09-12T22:38:22;9.07;;;5.47;;
78183;SDS011;67442;44.570;18.610;2023-09-12T22:40:49;10.93;;;5.75;;
78183;SDS011;67442;44.570;18.610;2023-09-12T22:43:17;10.80;;;6.03;;
78183;SDS011;67442;44.570;18.610;2023-09-12T22:45:44;11.80;;;6.05;;
78183;SDS011;67442;44.570;18.610;2023-09-12T22:48:11;12.45;;;6.18;;
78183;SDS011;67442;44.570;18.610;2023-09-12T22:50:43;10.10;;;5.53;;
78183;SDS011;67442;44.570;18.610;2023-09-12T22:53:12;11.63;;;6.03;;
78183;SDS011;67442;44.570;18.610;2023-09-12T22:55:43;13.65;;;6.50;;
78183;SDS011;67442;44.570;18.610;2023-09-12T22:58:10;14.40;;;6.20;;
78183;SDS011;67442;44.570;18.610;2023-09-12T23:00:41;11.43;;;5.63;;
78183;SDS011;67442;44.570;18.610;2023-09-12T23:03:12;12.85;;;6.45;;
78183;SDS011;67442;44.570;18.610;2023-09-12T23:05:43;13.55;;;6.15;;
78183;SDS011;67442;44.570;18.610;2023-09-12T23:08:10;12.10;;;5.75;;
78183;SDS011;67442;44.570;18.610;2023-09-12T23:10:37;12.10;;;6.47;;
78183;SDS011;67442;44.570;18.610;2023-09-12T23:13:05;10.85;;;5.53;;
78183;SDS011;67442;44.570;18.610;2023-09-12T23:15:32;8.57;;;5.10;;
78183;SDS011;67442;44.570;18.610;2023-09-12T23:18:04;10.35;;;5.95;;
78183;SDS011;67442;44.570;18.610;2023-09-12T23:20:31;11.45;;;5.60;;
78183;SDS011;67442;44.570;18.610;2023-09-12T23:23:02;10.13;;;5.50;;
78183;SDS011;67442;44.570;18.610;2023-09-12T23:25:31;9.45;;;5.13;;
78183;SDS011;67442;44.570;18.610;2023-09-12T23:28:00;11.18;;;6.13;;
78183;SDS011;67442;44.570;18.610;2023-09-12T23:30:27;9.88;;;5.85;;
78183;SDS011;67442;44.570;18.610;2023-09-12T23:32:55;10.68;;;5.10;;
78183;SDS011;67442;44.570;18.610;2023-09-12T23:35:22;10.02;;;5.63;;
78183;SDS011;67442;44.570;18.610;2023-09-12T23:37:50;9.18;;;5.18;;
78183;SDS011;67442;44.570;18.610;2023-09-12T23:40:17;12.27;;;5.57;;
78183;SDS011;67442;44.570;18.610;2023-09-12T23:42:49;10.60;;;5.53;;
78183;SDS011;67442;44.570;18.610;2023-09-12T23:45:16;13.00;;;6.40;;
78183;SDS011;67442;44.570;18.610;2023-09-12T23:47:43;8.52;;;5.22;;
78183;SDS011;67442;44.570;18.610;2023-09-12T23:50:10;9.77;;;5.28;;
78183;SDS011;67442;44.570;18.610;2023-09-12T23:52:38;9.60;;;5.65;;
78183;SDS011;67442;44.570;18.610;2023-09-12T23:55:05;10.95;;;5.35;;
78183;SDS011;67442;44.570;18.610;2023-09-12T23:57:32;9.52;;;5.25;;
